createdAt,value
2023-01-17T00:00:58.038Z,1.52
2023-01-17T00:03:29.036Z,1.95
2023-01-17T00:06:17.124Z,1.58
2023-01-17T00:09:05.925Z,1.48
2023-01-17T00:11:36.372Z,1.70
2023-01-17T00:14:06.236Z,1.65
2023-01-17T00:16:37.062Z,1.70
2023-01-17T00:19:25.061Z,1.48
2023-01-17T00:22:13.990Z,1.50
2023-01-17T00:25:02.509Z,1.50
2023-01-17T00:27:32.676Z,2.00
2023-01-17T00:30:02.241Z,2.10
2023-01-17T00:32:32.275Z,1.60
2023-01-17T00:35:02.121Z,1.92
2023-01-17T00:37:31.727Z,1.80
2023-01-17T00:40:01.558Z,2.20
2023-01-17T00:42:31.345Z,1.95
2023-01-17T00:45:19.438Z,2.17
2023-01-17T00:48:08.168Z,2.13
2023-01-17T00:50:57.589Z,2.65
2023-01-17T00:53:45.752Z,2.80
2023-01-17T00:56:33.971Z,2.58
2023-01-17T00:59:22.251Z,2.60
2023-01-17T01:02:11.224Z,2.20
2023-01-17T01:04:59.767Z,2.70
2023-01-17T01:07:47.951Z,2.47
2023-01-17T01:10:36.299Z,2.78
2023-01-17T01:13:24.982Z,2.35
2023-01-17T01:16:13.808Z,2.33
2023-01-17T01:19:02.084Z,2.10
2023-01-17T01:21:50.404Z,2.13
2023-01-17T01:24:39.196Z,2.35
2023-01-17T01:27:27.788Z,2.30
2023-01-17T01:30:16.079Z,2.28
2023-01-17T01:33:04.449Z,2.13
2023-01-17T01:35:34.826Z,2.22
2023-01-17T01:38:05.422Z,2.15
2023-01-17T01:40:35.249Z,2.60
2023-01-17T01:43:07.123Z,2.63
2023-01-17T01:45:37.827Z,2.80
2023-01-17T01:48:08.016Z,2.30
2023-01-17T01:50:38.754Z,2.40
2023-01-17T01:53:09.380Z,2.35
2023-01-17T01:55:44.290Z,2.38
2023-01-17T01:58:23.850Z,2.70
2023-01-17T02:00:56.933Z,2.72
2023-01-17T02:03:30.622Z,2.47
2023-01-17T02:06:14.320Z,2.58
2023-01-17T02:08:45.225Z,2.50
2023-01-17T02:11:15.535Z,2.03
2023-01-17T02:13:45.738Z,2.35
2023-01-17T02:16:48.565Z,2.20
2023-01-17T02:19:56.426Z,2.50
2023-01-17T02:23:01.924Z,2.20
2023-01-17T02:26:03.460Z,2.58
2023-01-17T02:29:12.057Z,2.42
2023-01-17T02:32:02.424Z,2.30
2023-01-17T02:34:35.025Z,2.90
2023-01-17T02:37:36.291Z,2.70
2023-01-17T02:40:19.586Z,2.17
2023-01-17T02:42:57.915Z,2.30
2023-01-17T02:45:28.366Z,2.75
2023-01-17T02:47:58.348Z,2.85
2023-01-17T02:50:43.262Z,2.35
2023-01-17T02:53:49.437Z,2.42
2023-01-17T02:56:37.684Z,2.15
2023-01-17T02:59:23.105Z,2.97
2023-01-17T03:02:12.282Z,2.22
2023-01-17T03:04:57.778Z,2.20
2023-01-17T03:07:29.807Z,2.40
2023-01-17T03:12:34.537Z,2.50
2023-01-17T03:15:05.244Z,2.30
2023-01-17T03:17:35.361Z,2.40
2023-01-17T03:20:05.454Z,2.50
2023-01-17T03:22:35.855Z,3.05
2023-01-17T03:25:07.102Z,2.20
2023-01-17T03:27:37.958Z,2.33
2023-01-17T03:30:08.628Z,2.47
2023-01-17T03:32:38.461Z,2.10
2023-01-17T03:35:09.084Z,2.50
2023-01-17T03:37:39.093Z,2.15
2023-01-17T03:40:10.032Z,3.17
2023-01-17T03:42:40.924Z,2.30
2023-01-17T03:45:11.397Z,2.22
2023-01-17T03:47:41.663Z,2.22
2023-01-17T03:50:13.466Z,2.13
2023-01-17T03:52:43.687Z,2.22
2023-01-17T03:55:13.573Z,2.53
2023-01-17T03:57:43.451Z,2.00
2023-01-17T04:00:14.341Z,2.17
2023-01-17T04:02:44.591Z,2.53
2023-01-17T04:05:14.494Z,2.10
2023-01-17T04:07:44.580Z,2.13
2023-01-17T04:10:14.373Z,2.05
2023-01-17T04:12:44.252Z,2.38
2023-01-17T04:15:14.442Z,2.33
2023-01-17T04:17:44.412Z,2.63
2023-01-17T04:20:28.372Z,2.20
2023-01-17T04:22:58.610Z,2.00
2023-01-17T04:25:31.241Z,2.03
2023-01-17T04:28:02.995Z,2.20
2023-01-17T04:30:34.074Z,2.13
2023-01-17T04:33:04.726Z,2.30
2023-01-17T04:35:35.866Z,2.50
2023-01-17T04:38:05.843Z,2.35
2023-01-17T04:40:35.678Z,2.17
2023-01-17T04:43:05.631Z,2.25
2023-01-17T04:45:35.452Z,2.30
2023-01-17T04:48:06.490Z,2.40
2023-01-17T04:50:36.662Z,2.47
2023-01-17T04:53:07.211Z,2.40
2023-01-17T04:55:37.187Z,2.50
2023-01-17T04:58:07.407Z,2.08
2023-01-17T05:00:37.213Z,2.35
2023-01-17T05:03:07.037Z,2.40
2023-01-17T05:05:36.888Z,1.92
2023-01-17T05:08:07.044Z,2.50
2023-01-17T05:10:36.862Z,2.30
2023-01-17T05:13:07.739Z,2.33
2023-01-17T05:15:38.623Z,2.25
2023-01-17T05:18:13.018Z,2.20
2023-01-17T05:20:44.624Z,2.53
2023-01-17T05:23:15.177Z,2.20
2023-01-17T05:25:45.897Z,2.22
2023-01-17T05:28:16.802Z,2.63
2023-01-17T05:30:46.922Z,2.22
2023-01-17T05:33:16.788Z,2.30
2023-01-17T05:35:47.662Z,2.13
2023-01-17T05:38:18.195Z,2.15
2023-01-17T05:40:48.643Z,2.58
2023-01-17T05:43:18.443Z,2.22
2023-01-17T05:45:51.044Z,2.58
2023-01-17T05:48:21.988Z,2.20
2023-01-17T05:50:53.371Z,2.25
2023-01-17T05:53:23.754Z,2.40
2023-01-17T05:55:53.529Z,2.03
2023-01-17T05:58:24.355Z,2.20
2023-01-17T06:00:57.084Z,2.70
2023-01-17T06:03:27.758Z,1.95
2023-01-17T06:05:57.557Z,2.00
2023-01-17T06:08:27.377Z,2.05
2023-01-17T06:10:59.730Z,2.03
2023-01-17T06:13:31.388Z,1.80
2023-01-17T06:16:05.388Z,1.90
2023-01-17T06:18:35.644Z,2.00
2023-01-17T06:21:05.526Z,1.90
2023-01-17T06:23:36.069Z,2.63
2023-01-17T06:26:06.782Z,2.05
2023-01-17T06:28:37.236Z,2.13
2023-01-17T06:31:11.613Z,1.80
2023-01-17T06:33:41.980Z,1.92
2023-01-17T06:36:12.110Z,2.05
2023-01-17T06:38:42.399Z,1.92
2023-01-17T06:41:12.172Z,2.03
2023-01-17T06:43:41.927Z,2.10
2023-01-17T06:46:11.776Z,2.25
2023-01-17T06:48:44.699Z,2.45
2023-01-17T06:51:15.276Z,2.67
2023-01-17T06:53:45.090Z,2.45
2023-01-17T06:56:14.871Z,2.22
2023-01-17T06:58:44.715Z,2.40
2023-01-17T07:01:15.237Z,2.17
2023-01-17T07:03:46.194Z,2.22
2023-01-17T07:06:16.804Z,1.88
2023-01-17T07:08:46.614Z,3.35
2023-01-17T07:11:16.478Z,2.20
2023-01-17T07:13:46.316Z,1.70
2023-01-17T07:16:16.640Z,2.40
2023-01-17T07:18:46.438Z,2.00
2023-01-17T07:21:16.988Z,1.80
2023-01-17T07:23:46.972Z,1.70
2023-01-17T07:26:18.572Z,2.13
2023-01-17T07:28:48.593Z,2.20
2023-01-17T07:31:18.620Z,1.90
2023-01-17T07:33:48.421Z,2.47
2023-01-17T07:36:18.688Z,1.63
2023-01-17T07:38:48.778Z,2.17
2023-01-17T07:41:18.667Z,2.25
2023-01-17T07:43:48.456Z,2.60
2023-01-17T07:46:19.420Z,2.20
2023-01-17T07:48:49.397Z,1.80
2023-01-17T07:51:19.190Z,1.83
2023-01-17T07:53:49.868Z,1.90
2023-01-17T07:56:20.486Z,1.90
2023-01-17T07:58:50.245Z,2.10
2023-01-17T08:01:20.213Z,2.22
2023-01-17T08:03:54.818Z,2.60
2023-01-17T08:06:27.529Z,2.13
2023-01-17T08:09:00.142Z,2.30
2023-01-17T08:11:30.190Z,1.95
2023-01-17T08:14:00.915Z,2.00
2023-01-17T08:16:31.144Z,2.15
2023-01-17T08:19:01.196Z,2.80
2023-01-17T08:21:30.974Z,1.85
2023-01-17T08:24:01.024Z,2.83
2023-01-17T08:26:30.815Z,2.60
2023-01-17T08:29:02.239Z,2.05
2023-01-17T08:31:35.218Z,2.00
2023-01-17T08:34:05.736Z,2.13
2023-01-17T08:36:35.532Z,2.20
2023-01-17T08:39:05.829Z,2.42
2023-01-17T08:41:35.596Z,2.05
2023-01-17T08:44:05.809Z,2.60
2023-01-17T08:46:35.602Z,1.90
2023-01-17T08:49:05.395Z,2.00
2023-01-17T08:51:36.042Z,2.13
2023-01-17T08:54:06.161Z,1.70
2023-01-17T08:56:36.389Z,1.90
2023-01-17T08:59:06.660Z,2.10
2023-01-17T09:01:41.904Z,2.03
2023-01-17T09:04:15.484Z,2.15
2023-01-17T09:06:48.644Z,2.25
2023-01-17T09:09:19.892Z,3.03
2023-01-17T09:11:49.880Z,2.28
2023-01-17T09:14:19.748Z,2.55
2023-01-17T09:16:49.883Z,2.40
2023-01-17T09:19:19.739Z,2.20
2023-01-17T09:21:49.912Z,2.35
2023-01-17T09:24:19.954Z,2.13
2023-01-17T09:26:49.826Z,1.98
2023-01-17T09:29:19.910Z,2.22
2023-01-17T09:31:49.952Z,1.50
2023-01-17T09:34:22.669Z,2.20
2023-01-17T09:36:53.362Z,1.80
2023-01-17T09:39:23.153Z,1.80
2023-01-17T09:42:15.378Z,2.00
2023-01-17T09:44:48.688Z,2.17
2023-01-17T09:47:46.414Z,2.03
2023-01-17T09:50:27.417Z,2.38
2023-01-17T09:53:08.494Z,2.20
2023-01-17T09:56:19.247Z,2.13
2023-01-17T09:59:09.704Z,1.92
2023-01-17T10:01:58.447Z,1.80
2023-01-17T10:04:38.328Z,2.10
2023-01-17T10:07:34.054Z,2.20
2023-01-17T10:10:19.222Z,1.95
2023-01-17T10:13:01.167Z,2.53
2023-01-17T10:15:57.008Z,2.25
2023-01-17T10:19:05.152Z,2.08
2023-01-17T10:21:55.594Z,2.40
2023-01-17T10:24:53.075Z,2.30
2023-01-17T10:27:39.874Z,2.33
2023-01-17T10:30:36.691Z,1.90
2023-01-17T10:33:28.906Z,1.90
2023-01-17T10:36:12.696Z,1.77
2023-01-17T10:38:49.370Z,2.05
2023-01-17T10:41:26.640Z,1.73
2023-01-17T10:44:18.937Z,1.80
2023-01-17T10:47:01.897Z,1.17
2023-01-17T10:49:33.326Z,1.35
2023-01-17T10:52:22.897Z,1.33
2023-01-17T10:55:18.164Z,0.88
2023-01-17T10:57:50.797Z,1.20
2023-01-17T11:00:45.062Z,0.85
2023-01-17T11:03:18.921Z,0.85
2023-01-17T11:06:19.092Z,1.10
2023-01-17T11:09:04.690Z,0.80
2023-01-17T11:11:38.674Z,0.90
2023-01-17T11:14:21.717Z,0.90
2023-01-17T11:17:04.331Z,0.80
2023-01-17T11:19:40.324Z,0.90
2023-01-17T11:22:16.649Z,1.33
2023-01-17T11:25:05.272Z,0.90
2023-01-17T11:27:42.158Z,0.80
2023-01-17T11:30:27.278Z,0.88
2023-01-17T11:33:08.204Z,0.68
2023-01-17T11:35:46.633Z,0.68
2023-01-17T11:38:20.726Z,0.50
2023-01-17T11:40:51.916Z,0.73
2023-01-17T11:43:28.030Z,0.98
2023-01-17T11:46:23.855Z,0.80
2023-01-17T11:49:00.446Z,0.55
2023-01-17T11:51:40.805Z,0.70
2023-01-17T11:54:23.891Z,0.60
2023-01-17T11:57:00.428Z,0.50
2023-01-17T11:59:44.902Z,0.60
2023-01-17T12:02:32.907Z,0.60
2023-01-17T12:05:28.431Z,0.70
2023-01-17T12:08:16.258Z,0.57
2023-01-17T12:11:30.690Z,0.43
2023-01-17T12:14:13.654Z,0.80
2023-01-17T12:17:02.135Z,0.80
2023-01-17T12:20:07.054Z,0.80
2023-01-17T12:22:41.850Z,0.90
2023-01-17T12:25:23.828Z,0.60
2023-01-17T12:28:24.788Z,0.60
2023-01-17T12:31:03.429Z,1.05
2023-01-17T12:33:54.429Z,0.73
2023-01-17T12:36:34.246Z,0.82
2023-01-17T12:39:09.180Z,0.70
2023-01-17T12:42:25.214Z,0.80
2023-01-17T12:45:33.205Z,0.88
2023-01-17T12:48:22.846Z,2.05
2023-01-17T12:51:28.943Z,6.20
2023-01-17T12:54:02.213Z,5.95
2023-01-17T12:56:42.826Z,1.20
2023-01-17T13:00:03.865Z,0.60
2023-01-17T13:02:56.664Z,0.73
2023-01-17T13:05:42.910Z,0.75
2023-01-17T13:08:30.686Z,0.75
2023-01-17T13:11:08.058Z,0.88
2023-01-17T13:13:38.602Z,0.90
2023-01-17T13:16:14.687Z,0.98
2023-01-17T13:18:50.374Z,1.00
2023-01-17T13:21:38.029Z,0.75
2023-01-17T13:24:41.989Z,1.02
2023-01-17T13:27:28.562Z,0.90
2023-01-17T13:30:30.909Z,0.70
2023-01-17T13:33:25.353Z,0.73
2023-01-17T13:36:35.457Z,0.50
2023-01-17T13:39:34.298Z,0.88
2023-01-17T13:42:31.273Z,0.82
2023-01-17T13:45:09.095Z,0.57
2023-01-17T13:47:42.780Z,0.52
2023-01-17T13:50:40.198Z,0.70
2023-01-17T13:53:40.362Z,1.02
2023-01-17T13:56:26.184Z,1.02
2023-01-17T13:59:04.884Z,0.65
2023-01-17T14:01:44.340Z,0.80
2023-01-17T14:04:15.145Z,0.73
2023-01-17T14:07:03.197Z,1.00
2023-01-17T14:09:43.664Z,0.85
2023-01-17T14:12:15.196Z,0.70
2023-01-17T14:14:51.428Z,0.80
2023-01-17T14:17:26.575Z,0.90
2023-01-17T14:20:04.024Z,0.90
2023-01-17T14:22:39.703Z,0.70
2023-01-17T14:25:13.369Z,0.60
2023-01-17T14:28:07.273Z,0.68
2023-01-17T14:30:40.819Z,0.70
2023-01-17T14:33:26.228Z,0.75
2023-01-17T14:36:02.480Z,0.50
2023-01-17T14:38:37.909Z,0.85
2023-01-17T14:41:12.999Z,0.52
2023-01-17T14:43:45.041Z,0.60
2023-01-17T14:46:33.816Z,0.60
2023-01-17T14:49:09.488Z,0.50
2023-01-17T14:51:40.150Z,0.60
2023-01-17T14:54:37.954Z,0.60
2023-01-17T14:57:17.602Z,0.50
2023-01-17T14:59:48.267Z,0.68
2023-01-17T15:02:19.870Z,0.50
2023-01-17T15:04:56.075Z,0.43
2023-01-17T15:07:28.435Z,0.50
2023-01-17T15:09:59.128Z,0.60
2023-01-17T15:12:30.267Z,0.60
2023-01-17T15:15:00.496Z,0.73
2023-01-17T15:17:30.315Z,0.57
2023-01-17T15:20:04.836Z,0.80
2023-01-17T15:22:35.641Z,0.68
2023-01-17T15:25:06.638Z,0.80
2023-01-17T15:27:37.024Z,0.80
2023-01-17T15:30:08.602Z,0.60
2023-01-17T15:32:39.799Z,0.70
2023-01-17T15:35:19.684Z,0.40
2023-01-17T15:37:55.660Z,0.43
2023-01-17T15:40:27.211Z,0.60
2023-01-17T15:45:32.871Z,0.50
2023-01-17T15:48:42.753Z,0.55
2023-01-17T15:51:14.236Z,0.57
2023-01-17T15:53:45.402Z,0.50
2023-01-17T15:56:34.869Z,0.75
2023-01-17T15:59:30.031Z,0.57
2023-01-17T16:02:00.682Z,0.50
2023-01-17T16:04:36.467Z,0.40
2023-01-17T16:07:37.298Z,0.70
2023-01-17T16:10:18.836Z,0.50
2023-01-17T16:12:53.858Z,0.50
2023-01-17T16:15:25.115Z,0.70
2023-01-17T16:17:59.122Z,0.40
2023-01-17T16:20:58.385Z,0.70
2023-01-17T16:23:31.944Z,0.50
2023-01-17T16:26:02.357Z,0.65
2023-01-17T16:28:32.644Z,0.50
2023-01-17T16:31:02.823Z,0.52
2023-01-17T16:33:33.102Z,0.70
2023-01-17T16:36:03.203Z,0.70
2023-01-17T16:38:33.420Z,0.50
2023-01-17T16:41:06.085Z,0.70
2023-01-17T16:43:36.375Z,0.52
2023-01-17T16:46:06.408Z,0.50
2023-01-17T16:48:38.307Z,0.50
2023-01-17T16:51:09.756Z,0.63
2023-01-17T16:53:40.200Z,1.50
2023-01-17T16:56:17.724Z,0.40
2023-01-17T16:58:48.660Z,0.40
2023-01-17T17:01:22.134Z,0.50
2023-01-17T17:03:52.509Z,0.50
2023-01-17T17:06:22.845Z,0.50
2023-01-17T17:08:52.859Z,0.73
2023-01-17T17:11:26.938Z,0.65
2023-01-17T17:13:58.269Z,0.50
2023-01-17T17:16:36.092Z,0.82
2023-01-17T17:21:42.118Z,0.60
2023-01-17T17:24:17.309Z,0.60
2023-01-17T17:26:47.784Z,1.33
2023-01-17T17:29:17.673Z,0.50
2023-01-17T17:31:47.735Z,0.60
2023-01-17T17:34:18.092Z,0.60
2023-01-17T17:36:48.630Z,0.60
2023-01-17T17:39:18.734Z,0.93
2023-01-17T17:41:49.468Z,0.80
2023-01-17T17:44:19.324Z,0.40
2023-01-17T17:46:52.227Z,0.50
2023-01-17T17:49:24.982Z,0.45
2023-01-17T17:51:56.199Z,0.40
2023-01-17T17:54:28.493Z,0.50
2023-01-17T17:56:59.508Z,0.55
2023-01-17T17:59:30.968Z,0.50
2023-01-17T18:02:01.531Z,0.70
2023-01-17T18:04:32.328Z,0.80
2023-01-17T18:07:02.268Z,0.40
2023-01-17T18:09:32.492Z,0.77
2023-01-17T18:12:04.017Z,0.70
2023-01-17T18:14:34.119Z,0.75
2023-01-17T18:17:03.961Z,0.68
2023-01-17T18:19:33.782Z,0.68
2023-01-17T18:22:04.908Z,0.52
2023-01-17T18:24:35.373Z,0.52
2023-01-17T18:27:05.302Z,0.90
2023-01-17T18:29:35.342Z,0.68
2023-01-17T18:32:05.277Z,0.65
2023-01-17T18:34:36.812Z,0.50
2023-01-17T18:37:07.252Z,0.85
2023-01-17T18:39:37.453Z,0.70
2023-01-17T18:42:07.356Z,0.98
2023-01-17T18:44:37.235Z,0.82
2023-01-17T18:47:07.326Z,1.05
2023-01-17T18:49:37.141Z,1.00
2023-01-17T18:52:09.157Z,0.60
2023-01-17T18:54:40.531Z,0.32
2023-01-17T18:57:10.602Z,0.20
2023-01-17T18:59:41.005Z,0.43
2023-01-17T19:02:11.627Z,0.55
2023-01-17T19:04:41.849Z,0.40
2023-01-17T19:07:12.755Z,0.80
2023-01-17T19:09:42.630Z,0.60
2023-01-17T19:12:12.490Z,0.30
2023-01-17T19:14:42.464Z,0.30
2023-01-17T19:17:12.290Z,0.40
2023-01-17T19:19:42.592Z,0.25
2023-01-17T19:22:12.640Z,0.30
2023-01-17T19:24:42.766Z,0.30
2023-01-17T19:27:14.197Z,0.20
2023-01-17T19:29:44.820Z,0.30
2023-01-17T19:32:14.658Z,0.50
2023-01-17T19:34:44.473Z,0.20
2023-01-17T19:37:14.728Z,0.30
2023-01-17T19:39:44.534Z,0.28
2023-01-17T19:42:16.803Z,0.10
2023-01-17T19:44:47.386Z,0.20
2023-01-17T19:47:17.334Z,0.30
2023-01-17T19:49:47.215Z,0.40
2023-01-17T19:52:18.371Z,0.40
2023-01-17T19:54:49.305Z,0.30
2023-01-17T19:57:23.188Z,0.40
2023-01-17T19:59:53.415Z,0.20
2023-01-17T20:02:24.511Z,0.20
2023-01-17T20:04:54.626Z,0.20
2023-01-17T20:07:25.019Z,0.50
2023-01-17T20:09:56.596Z,0.52
2023-01-17T20:12:27.098Z,0.47
2023-01-17T20:14:56.877Z,0.30
2023-01-17T20:17:26.780Z,0.20
2023-01-17T20:19:56.570Z,0.20
2023-01-17T20:22:26.880Z,0.40
2023-01-17T20:24:57.165Z,0.10
2023-01-17T20:27:27.773Z,0.43
2023-01-17T20:30:01.411Z,0.28
2023-01-17T20:32:35.546Z,0.35
2023-01-17T20:35:05.984Z,0.10
2023-01-17T20:37:36.429Z,0.15
2023-01-17T20:40:08.338Z,0.20
2023-01-17T20:42:39.757Z,0.40
2023-01-17T20:45:10.559Z,0.30
2023-01-17T20:47:40.612Z,0.63
2023-01-17T20:50:10.967Z,0.30
2023-01-17T20:52:41.407Z,0.40
2023-01-17T20:55:11.620Z,0.60
2023-01-17T20:57:42.159Z,0.50
2023-01-17T21:00:13.460Z,0.20
2023-01-17T21:02:44.720Z,0.60
2023-01-17T21:05:15.737Z,0.50
2023-01-17T21:07:45.580Z,0.95
2023-01-17T21:10:15.549Z,0.40
2023-01-17T21:12:45.822Z,0.50
2023-01-17T21:15:18.595Z,0.88
2023-01-17T21:17:48.732Z,0.30
2023-01-17T21:20:19.060Z,0.30
2023-01-17T21:22:49.052Z,0.55
2023-01-17T21:25:20.673Z,0.32
2023-01-17T21:27:51.605Z,0.35
2023-01-17T21:30:22.046Z,0.40
2023-01-17T21:32:52.073Z,0.20
2023-01-17T21:35:21.886Z,0.40
2023-01-17T21:37:52.263Z,0.75
2023-01-17T21:40:22.299Z,0.45
2023-01-17T21:42:54.003Z,0.43
2023-01-17T21:45:27.362Z,0.40
2023-01-17T21:47:57.782Z,0.40
2023-01-17T21:50:33.314Z,0.30
2023-01-17T21:53:05.543Z,0.52
2023-01-17T21:55:53.656Z,0.50
2023-01-17T21:58:41.896Z,0.50
2023-01-17T22:01:19.392Z,0.47
2023-01-17T22:04:00.415Z,0.40
2023-01-17T22:06:40.218Z,0.50
2023-01-17T22:09:10.619Z,0.38
2023-01-17T22:11:40.776Z,0.40
2023-01-17T22:14:11.119Z,0.70
2023-01-17T22:16:40.916Z,0.40
2023-01-17T22:19:10.794Z,0.40
2023-01-17T22:21:40.989Z,0.30
2023-01-17T22:24:17.088Z,0.30
2023-01-17T22:26:47.819Z,0.40
2023-01-17T22:29:20.479Z,0.32
2023-01-17T22:31:50.736Z,0.43
2023-01-17T22:34:20.619Z,0.40
2023-01-17T22:36:50.661Z,0.85
2023-01-17T22:39:20.496Z,0.63
2023-01-17T22:41:50.979Z,0.60
2023-01-17T22:44:20.929Z,0.30
2023-01-17T22:46:51.136Z,0.73
2023-01-17T22:49:24.502Z,0.68
2023-01-17T22:51:55.037Z,0.40
2023-01-17T22:54:25.496Z,0.60
2023-01-17T22:56:55.755Z,0.28
2023-01-17T22:59:25.618Z,0.30
2023-01-17T23:01:55.586Z,0.32
2023-01-17T23:04:25.451Z,0.40
2023-01-17T23:06:55.772Z,0.63
2023-01-17T23:09:25.706Z,0.40
2023-01-17T23:11:56.404Z,0.52
2023-01-17T23:14:52.317Z,0.50
2023-01-17T23:17:43.161Z,0.40
2023-01-17T23:20:14.559Z,0.52
2023-01-17T23:22:46.067Z,0.60
2023-01-17T23:25:16.106Z,0.60
2023-01-17T23:28:06.486Z,0.43
2023-01-17T23:30:41.511Z,0.60
2023-01-17T23:33:16.464Z,0.40
2023-01-17T23:35:47.949Z,0.40
2023-01-17T23:38:34.614Z,0.38
2023-01-17T23:41:28.669Z,0.50
2023-01-17T23:44:01.114Z,0.40
2023-01-17T23:46:31.949Z,3.00
2023-01-17T23:49:01.962Z,1.92
2023-01-17T23:51:32.838Z,0.63
2023-01-17T23:54:06.591Z,0.60
2023-01-17T23:56:36.800Z,1.20
2023-01-17T23:59:06.945Z,0.70
